Time;durP1;ratioP1;P1;durP2;ratioP2;P2;SDS_P1;SDS_P2;PMS_P1;PMS_P2;Temp;Humidity;BMP_temperature;BMP_pressure;BME280_temperature;BME280_humidity;BME280_pressure;Samples;Min_cycle;Max_cycle;Signal;HPM_P1;HPM_P2
2022/05/02 00:00:20;;;;;;;4.30;1.00;;;8.80;99.90;;;;;;5016471;28;20471;-84
2022/05/02 00:02:47;;;;;;;0.60;0.60;;;8.80;99.90;;;;;;5016547;28;20860;-84
2022/05/02 00:05:14;;;;;;;3.30;1.20;;;8.70;99.90;;;;;;5016537;28;20443;-84
2022/05/02 00:07:42;;;;;;;0.47;0.47;;;8.70;99.90;;;;;;5016507;28;20443;-84
2022/05/02 00:10:09;;;;;;;1.53;0.60;;;8.60;99.90;;;;;;5016586;28;20471;-84
2022/05/02 00:12:36;;;;;;;1.33;0.77;;;8.60;99.90;;;;;;5016339;28;20962;-84
2022/05/02 00:15:04;;;;;;;0.50;0.50;;;8.60;99.90;;;;;;5016364;28;20490;-84
2022/05/02 00:20:15;;;;;;;2.63;0.60;;;8.60;99.90;;;;;;5016145;28;20634;-84
2022/05/02 00:22:44;;;;;;;3.43;0.80;;;8.60;99.90;;;;;;5015895;28;20939;-84
2022/05/02 00:25:12;;;;;;;2.10;1.43;;;8.60;99.90;;;;;;5016193;28;20454;-84
2022/05/02 00:27:39;;;;;;;0.50;0.50;;;8.60;99.90;;;;;;5016100;28;20451;-84
2022/05/02 00:30:08;;;;;;;3.03;1.47;;;8.60;99.90;;;;;;5016015;28;20470;-84
2022/05/02 00:32:35;;;;;;;0.53;0.50;;;8.60;99.90;;;;;;5015719;28;20983;-84
2022/05/02 00:35:02;;;;;;;1.50;0.77;;;8.60;99.90;;;;;;5015944;28;20514;-84
2022/05/02 00:37:29;;;;;;;1.67;1.67;;;8.60;99.90;;;;;;5015552;28;20966;-84
2022/05/02 00:39:57;;;;;;;1.57;1.07;;;8.60;99.90;;;;;;5015468;28;20475;-83
2022/05/02 00:42:24;;;;;;;3.53;1.63;;;8.60;99.90;;;;;;5015903;28;20447;-84
2022/05/02 00:44:51;;;;;;;0.67;0.67;;;8.60;99.90;;;;;;5015983;28;20452;-84
2022/05/02 00:47:20;;;;;;;1.10;0.60;;;8.50;99.90;;;;;;5015642;28;20452;-83
2022/05/02 00:49:47;;;;;;;0.90;0.67;;;8.50;99.90;;;;;;5015893;28;20464;-84
2022/05/02 00:52:14;;;;;;;0.73;0.73;;;8.50;99.90;;;;;;5015524;28;20450;-84
2022/05/02 00:54:43;;;;;;;1.53;0.70;;;8.50;99.90;;;;;;5015644;28;20490;-84
2022/05/02 00:57:13;;;;;;;0.73;0.73;;;8.40;99.90;;;;;;5015579;28;20825;-84
2022/05/02 00:59:40;;;;;;;0.90;0.63;;;8.40;99.90;;;;;;5015438;28;20460;-84
2022/05/02 01:02:08;;;;;;;2.90;1.60;;;8.40;99.90;;;;;;5015499;28;20478;-84
2022/05/02 01:04:36;;;;;;;1.10;0.70;;;8.40;99.90;;;;;;5014473;28;20444;-84
2022/05/02 01:07:12;;;;;;;2.30;0.77;;;8.40;99.90;;;;;;5015412;28;20454;-84
2022/05/02 01:09:43;;;;;;;0.93;0.90;;;8.40;99.90;;;;;;5015275;28;20478;-84
2022/05/02 01:12:14;;;;;;;1.43;1.43;;;8.40;99.90;;;;;;5015030;28;20943;-84
2022/05/02 01:14:41;;;;;;;2.00;0.70;;;8.30;99.90;;;;;;5015467;28;20474;-84
2022/05/02 01:17:09;;;;;;;0.57;0.57;;;8.40;99.90;;;;;;5015242;28;20439;-84
2022/05/02 01:19:36;;;;;;;1.60;0.60;;;8.40;99.90;;;;;;5014714;28;20475;-84
2022/05/02 01:22:06;;;;;;;0.83;0.70;;;8.40;99.90;;;;;;5015042;28;20459;-84
2022/05/02 01:24:34;;;;;;;2.00;0.50;;;8.30;99.90;;;;;;5015127;28;20448;-84
2022/05/02 01:27:05;;;;;;;1.97;0.70;;;8.20;99.90;;;;;;5014713;28;20935;-84
2022/05/02 01:29:34;;;;;;;0.50;0.50;;;8.20;99.90;;;;;;5014713;28;20475;-84
2022/05/02 01:32:01;;;;;;;1.43;0.60;;;8.10;99.90;;;;;;5014951;28;20454;-84
2022/05/02 01:34:28;;;;;;;1.90;0.93;;;8.00;99.90;;;;;;5014737;28;20460;-84
2022/05/02 01:36:56;;;;;;;4.33;3.10;;;8.00;99.90;;;;;;5014851;28;20436;-84
2022/05/02 01:39:24;;;;;;;0.93;0.40;;;7.90;99.90;;;;;;5014543;28;20483;-84
2022/05/02 01:41:51;;;;;;;1.37;0.50;;;7.90;99.90;;;;;;5014511;28;20436;-83
2022/05/02 01:44:18;;;;;;;0.40;0.40;;;7.90;99.90;;;;;;5015251;28;20796;-84
2022/05/02 01:46:45;;;;;;;0.73;0.60;;;7.90;99.90;;;;;;5014654;28;20456;-84
2022/05/02 01:49:12;;;;;;;1.23;0.73;;;7.80;99.90;;;;;;5014236;28;20460;-84
2022/05/02 01:51:39;;;;;;;0.80;0.80;;;7.80;99.90;;;;;;5014619;28;20502;-84
2022/05/02 01:54:06;;;;;;;1.70;0.77;;;7.80;99.90;;;;;;5014577;28;20475;-84
2022/05/02 01:56:35;;;;;;;1.00;0.90;;;7.80;99.90;;;;;;5014477;28;20483;-84
2022/05/02 01:59:01;;;;;;;0.70;0.60;;;7.70;99.90;;;;;;5015108;28;20470;-83
2022/05/02 02:01:28;;;;;;;0.50;0.50;;;7.70;99.90;;;;;;5015717;28;20440;-83
2022/05/02 02:03:55;;;;;;;0.50;0.50;;;7.70;99.90;;;;;;5014043;28;20966;-85
2022/05/02 02:06:21;;;;;;;3.03;0.67;;;7.70;99.90;;;;;;5015200;28;20455;-84
2022/05/02 02:08:50;;;;;;;1.63;0.90;;;7.60;99.90;;;;;;5013886;28;20487;-84
2022/05/02 02:11:17;;;;;;;1.00;0.70;;;7.70;99.90;;;;;;5013916;28;20494;-83
2022/05/02 02:13:46;;;;;;;1.10;1.10;;;7.60;99.90;;;;;;5014139;28;20498;-84
2022/05/02 02:16:13;;;;;;;0.70;0.60;;;7.60;99.90;;;;;;5013457;28;20483;-84
2022/05/02 02:18:41;;;;;;;1.87;0.87;;;7.60;99.90;;;;;;5013940;28;20479;-84
2022/05/02 02:21:10;;;;;;;0.87;0.87;;;7.60;99.90;;;;;;5014029;28;20443;-84
2022/05/02 02:23:38;;;;;;;0.60;0.47;;;7.60;99.90;;;;;;5014008;28;20490;-84
2022/05/02 02:26:06;;;;;;;0.83;0.83;;;7.60;99.90;;;;;;5014007;28;20443;-84
2022/05/02 02:28:32;;;;;;;2.70;0.90;;;7.60;99.90;;;;;;5013798;28;20503;-84
2022/05/02 02:31:01;;;;;;;0.93;0.77;;;7.60;99.90;;;;;;5013897;28;20812;-84
2022/05/02 02:33:27;;;;;;;1.67;1.33;;;7.60;99.90;;;;;;5013877;28;20447;-84
2022/05/02 02:35:54;;;;;;;2.53;1.40;;;7.60;99.90;;;;;;5013457;28;20480;-84
2022/05/02 02:38:21;;;;;;;0.50;0.50;;;7.60;99.90;;;;;;5013845;28;20963;-84
2022/05/02 02:40:47;;;;;;;0.80;0.40;;;7.50;99.90;;;;;;5013525;28;20491;-84
2022/05/02 02:43:14;;;;;;;2.40;0.53;;;7.60;99.90;;;;;;5013821;28;20444;-84
2022/05/02 02:45:41;;;;;;;1.03;0.50;;;7.50;99.90;;;;;;5013674;28;20448;-84
2022/05/02 02:48:10;;;;;;;2.53;1.57;;;7.50;99.90;;;;;;5013215;28;20458;-84
2022/05/02 02:50:36;;;;;;;0.40;0.40;;;7.50;99.90;;;;;;5013583;28;20850;-84
2022/05/02 02:53:03;;;;;;;1.73;0.80;;;7.50;99.90;;;;;;5013356;28;20954;-84
2022/05/02 02:55:30;;;;;;;2.63;1.00;;;7.50;99.90;;;;;;5013510;28;20865;-84
2022/05/02 02:57:57;;;;;;;1.37;0.80;;;7.50;99.90;;;;;;5013683;28;20455;-84
2022/05/02 03:00:24;;;;;;;0.60;0.60;;;7.50;99.90;;;;;;5013343;28;20473;-84
2022/05/02 03:02:53;;;;;;;1.53;0.90;;;7.50;99.90;;;;;;5013317;28;20440;-84
2022/05/02 03:08:06;;;;;;;1.57;0.90;;;7.40;99.90;;;;;;5013330;28;20796;-84
2022/05/02 03:10:33;;;;;;;0.90;0.77;;;7.40;99.90;;;;;;5013089;28;20950;-84
2022/05/02 03:12:59;;;;;;;2.23;1.30;;;7.50;99.90;;;;;;5013249;28;20452;-84
2022/05/02 03:15:26;;;;;;;1.47;1.13;;;7.50;99.90;;;;;;5013182;28;20482;-84
2022/05/02 03:17:53;;;;;;;1.40;0.90;;;7.50;99.90;;;;;;5013473;28;20447;-84
2022/05/02 03:20:21;;;;;;;1.60;0.87;;;7.50;99.90;;;;;;5013381;28;20474;-84
2022/05/02 03:22:48;;;;;;;1.03;0.40;;;7.50;99.90;;;;;;5013195;28;20843;-84
2022/05/02 03:25:15;;;;;;;0.40;0.40;;;7.40;99.90;;;;;;5013437;28;20455;-84
2022/05/02 03:27:42;;;;;;;0.73;0.73;;;7.40;99.90;;;;;;5013319;28;20432;-84
2022/05/02 03:30:09;;;;;;;2.97;0.80;;;7.40;99.90;;;;;;5017034;28;20482;-84
2022/05/02 03:32:36;;;;;;;4.60;1.27;;;7.30;99.90;;;;;;5017130;28;20443;-84
2022/05/02 03:35:03;;;;;;;5.63;0.60;;;7.30;99.90;;;;;;5016734;28;20970;-84
2022/05/02 03:37:31;;;;;;;0.50;0.50;;;7.30;99.90;;;;;;5017361;28;20462;-83
2022/05/02 03:39:57;;;;;;;1.73;1.10;;;7.30;99.90;;;;;;5016694;28;20496;-84
2022/05/02 03:42:24;;;;;;;0.67;0.67;;;7.30;99.90;;;;;;5016856;28;20436;-84
2022/05/02 03:44:51;;;;;;;0.93;0.73;;;7.30;99.90;;;;;;5016698;28;20955;-84
2022/05/02 03:47:18;;;;;;;0.50;0.50;;;7.30;99.90;;;;;;5016907;28;20454;-84
2022/05/02 03:49:45;;;;;;;0.87;0.57;;;7.30;99.90;;;;;;5016505;28;20455;-84
2022/05/02 03:52:12;;;;;;;1.77;0.73;;;7.20;99.90;;;;;;5016773;28;20463;-84
2022/05/02 03:54:40;;;;;;;1.67;1.03;;;7.20;99.90;;;;;;5016979;28;20762;-84
2022/05/02 03:57:07;;;;;;;1.33;1.13;;;7.20;99.90;;;;;;5016243;28;20896;-84
2022/05/02 03:59:34;;;;;;;0.87;0.73;;;7.10;99.90;;;;;;5016472;28;20466;-84
2022/05/02 04:02:01;;;;;;;2.83;1.07;;;7.10;99.90;;;;;;5016623;28;20455;-84
2022/05/02 04:04:27;;;;;;;0.60;0.60;;;7.10;99.90;;;;;;5016315;28;20517;-84
2022/05/02 04:06:54;;;;;;;1.30;0.67;;;7.10;99.90;;;;;;5016308;28;20935;-84
2022/05/02 04:09:21;;;;;;;1.50;1.10;;;7.20;99.90;;;;;;5016008;28;20971;-84
2022/05/02 04:11:49;;;;;;;0.40;0.40;;;7.10;99.90;;;;;;5016345;28;20463;-84
2022/05/02 04:14:15;;;;;;;0.60;0.60;;;7.10;99.90;;;;;;5016039;28;20432;-84
2022/05/02 04:16:42;;;;;;;0.30;0.30;;;7.10;99.90;;;;;;5016787;28;20482;-84
2022/05/02 04:19:09;;;;;;;0.90;0.47;;;7.10;99.90;;;;;;5016168;28;20471;-84
2022/05/02 04:21:36;;;;;;;2.30;1.00;;;7.20;99.90;;;;;;5016109;28;20452;-84
2022/05/02 04:24:02;;;;;;;1.10;1.00;;;7.20;99.90;;;;;;5016176;28;20456;-84
2022/05/02 04:26:29;;;;;;;0.97;0.97;;;7.10;99.90;;;;;;5015839;28;20452;-84
2022/05/02 04:28:57;;;;;;;1.47;0.80;;;7.20;99.90;;;;;;5016154;28;20471;-84
2022/05/02 04:31:24;;;;;;;0.80;0.70;;;7.20;99.90;;;;;;5015762;28;20432;-84
2022/05/02 04:33:50;;;;;;;0.80;0.53;;;7.20;99.90;;;;;;5015613;28;20458;-84
2022/05/02 04:36:17;;;;;;;0.70;0.70;;;7.20;99.90;;;;;;5016210;28;20831;-84
2022/05/02 04:38:44;;;;;;;1.17;0.50;;;7.30;99.90;;;;;;5015758;28;20455;-84
2022/05/02 04:41:13;;;;;;;1.57;0.87;;;7.30;99.90;;;;;;5014761;28;21002;-84
2022/05/02 04:43:41;;;;;;;1.17;0.90;;;7.40;99.90;;;;;;5018365;28;20444;-83
2022/05/02 04:46:09;;;;;;;0.50;0.40;;;7.40;99.90;;;;;;5016223;28;20459;-84
2022/05/02 04:48:36;;;;;;;1.50;1.40;;;7.50;99.90;;;;;;5016260;28;20480;-83
2022/05/02 04:51:03;;;;;;;0.80;0.80;;;7.50;99.90;;;;;;5015677;28;20454;-84
2022/05/02 04:53:30;;;;;;;0.50;0.50;;;7.50;99.90;;;;;;5015599;28;20458;-84
2022/05/02 04:55:56;;;;;;;1.30;1.20;;;7.50;99.90;;;;;;5015488;28;20479;-84
2022/05/02 04:58:23;;;;;;;1.03;1.00;;;7.60;99.90;;;;;;5015118;28;21089;-84
2022/05/02 05:00:50;;;;;;;1.07;1.07;;;7.60;99.90;;;;;;5015430;28;20460;-84
2022/05/02 05:03:18;;;;;;;1.10;0.93;;;7.70;99.90;;;;;;5015314;28;20452;-83
2022/05/02 05:05:44;;;;;;;1.17;0.90;;;7.70;99.90;;;;;;5015148;28;20435;-83
2022/05/02 05:08:11;;;;;;;0.40;0.40;;;7.80;99.90;;;;;;5015247;28;20428;-83
2022/05/02 05:10:47;;;;;;;0.50;0.50;;;7.90;99.90;;;;;;5015001;28;20436;-83
2022/05/02 05:13:19;;;;;;;0.67;0.67;;;8.00;99.90;;;;;;5014990;28;20929;-83
2022/05/02 05:16:21;;;;;;;0.73;0.60;;;8.20;99.90;;;;;;5015412;28;20436;-83
2022/05/02 05:19:10;;;;;;;3.00;0.90;;;8.30;99.90;;;;;;5014800;28;20458;-83
2022/05/02 05:21:52;;;;;;;10.80;1.70;;;8.50;99.90;;;;;;5014887;28;20420;-83
2022/05/02 05:24:56;;;;;;;0.83;0.83;;;8.70;99.90;;;;;;5015012;28;20447;-83
2022/05/02 05:27:38;;;;;;;2.70;0.80;;;8.90;99.90;;;;;;5014668;28;20439;-83
2022/05/02 05:30:07;;;;;;;1.87;0.70;;;9.10;99.90;;;;;;5015249;28;20951;-83
2022/05/02 05:32:43;;;;;;;1.27;0.90;;;9.30;99.90;;;;;;5014642;28;20452;-83
2022/05/02 05:35:15;;;;;;;1.17;0.87;;;9.40;99.90;;;;;;5014825;28;20439;-83
2022/05/02 05:38:01;;;;;;;0.90;0.90;;;9.50;99.90;;;;;;5014695;28;20529;-83
2022/05/02 05:40:31;;;;;;;2.23;0.80;;;9.50;99.90;;;;;;5014697;28;20475;-84
2022/05/02 05:43:09;;;;;;;3.33;1.90;;;9.60;99.90;;;;;;5014339;28;20440;-83
2022/05/02 05:45:48;;;;;;;2.93;1.27;;;9.60;99.90;;;;;;5015349;28;20797;-87
2022/05/02 05:48:27;;;;;;;3.40;1.70;;;9.60;99.90;;;;;;5014995;28;20783;-88
2022/05/02 05:51:08;;;;;;;1.83;1.30;;;9.60;99.90;;;;;;5014959;28;20440;-88
2022/05/02 05:53:44;;;;;;;1.93;1.00;;;9.70;99.90;;;;;;5014954;28;20919;-88
2022/05/02 05:56:35;;;;;;;3.47;1.10;;;9.90;99.90;;;;;;5015078;28;21008;-88
2022/05/02 05:59:07;;;;;;;0.57;0.47;;;10.20;99.90;;;;;;5014709;28;21002;-87
2022/05/02 06:01:50;;;;;;;2.43;1.37;;;10.50;99.90;;;;;;5015156;28;20862;-88
2022/05/02 06:04:17;;;;;;;1.17;1.00;;;10.70;99.90;;;;;;5015112;28;20440;-88
2022/05/02 06:06:48;;;;;;;5.63;1.20;;;11.00;99.90;;;;;;5014571;28;20440;-87
2022/05/02 06:09:16;;;;;;;4.47;1.43;;;11.20;99.90;;;;;;5014594;28;20451;-87
2022/05/02 06:11:46;;;;;;;2.63;1.73;;;11.50;99.90;;;;;;5014769;28;20498;-88
2022/05/02 06:14:15;;;;;;;1.53;1.07;;;11.70;99.90;;;;;;5014701;28;20542;-87
2022/05/02 06:19:30;;;;;;;2.63;1.43;;;12.10;99.90;;;;;;5014980;28;20499;-88
2022/05/02 06:22:01;;;;;;;2.07;1.57;;;12.40;99.90;;;;;;5014609;28;20447;-87
2022/05/02 06:24:31;;;;;;;0.90;0.90;;;12.80;99.90;;;;;;5014525;28;20865;-87
2022/05/02 06:27:00;;;;;;;1.93;1.70;;;13.20;99.90;;;;;;5014746;28;20854;-87
2022/05/02 06:29:29;;;;;;;1.47;1.33;;;13.60;99.90;;;;;;5014217;28;20486;-87
2022/05/02 06:31:58;;;;;;;2.20;0.80;;;14.20;99.90;;;;;;5014611;28;20452;-87
2022/05/02 06:34:28;;;;;;;2.40;2.17;;;14.60;99.90;;;;;;5014318;28;20879;-87
2022/05/02 06:37:24;;;;;;;3.07;1.87;;;14.90;99.90;;;;;;5014364;28;20472;-87
2022/05/02 06:40:02;;;;;;;1.90;1.80;;;15.10;99.90;;;;;;5013794;28;20493;-87
2022/05/02 06:42:31;;;;;;;3.97;2.23;;;15.40;99.90;;;;;;5013819;28;20927;-87
2022/05/02 06:45:07;;;;;;;1.67;1.30;;;15.60;99.90;;;;;;5014850;28;20459;-87
2022/05/02 06:47:46;;;;;;;2.93;2.70;;;15.80;99.90;;;;;;5014235;28;20443;-87
2022/05/02 06:50:18;;;;;;;3.23;1.67;;;16.10;99.90;;;;;;5013682;28;20471;-87
2022/05/02 06:52:55;;;;;;;3.30;2.10;;;16.20;99.90;;;;;;5013615;28;20425;-87
2022/05/02 06:55:27;;;;;;;3.80;1.73;;;16.40;99.90;;;;;;5013816;28;20424;-88
2022/05/02 06:58:08;;;;;;;3.70;2.70;;;16.60;99.90;;;;;;5014094;28;20471;-88
2022/05/02 07:00:38;;;;;;;5.47;2.17;;;16.90;99.90;;;;;;5014207;28;20443;-87
2022/05/02 07:03:30;;;;;;;5.37;3.47;;;17.50;99.90;;;;;;5016461;28;20438;-88
2022/05/02 07:06:06;;;;;;;4.20;2.60;;;18.30;99.90;;;;;;5020386;28;20459;-87
2022/05/02 07:08:41;;;;;;;5.50;2.90;;;19.40;99.90;;;;;;5020415;28;20889;-88
2022/05/02 07:11:14;;;;;;;9.37;4.17;;;20.50;99.90;;;;;;5020625;28;20430;-88
2022/05/02 07:13:53;;;;;;;3.20;2.90;;;21.20;99.90;;;;;;5020337;28;20435;-88
2022/05/02 07:16:23;;;;;;;4.68;3.03;;;21.80;99.20;;;;;;5021080;28;20195;-88
2022/05/02 07:19:15;;;;;;;5.45;3.47;;;22.40;96.60;;;;;;5020228;28;20220;-88
2022/05/02 07:21:50;;;;;;;5.53;3.10;;;22.80;93.50;;;;;;5020372;28;20562;-88
2022/05/02 07:24:35;;;;;;;3.67;2.60;;;23.10;91.90;;;;;;5020525;28;20183;-88
2022/05/02 07:27:13;;;;;;;3.35;3.05;;;23.80;89.90;;;;;;5021780;28;20259;-88
2022/05/02 07:29:43;;;;;;;6.90;3.45;;;24.20;82.90;;;;;;5023725;28;20220;-88
2022/05/02 07:32:11;;;;;;;5.10;2.83;;;24.20;80.90;;;;;;5021388;28;20781;-89
2022/05/02 07:34:40;;;;;;;7.25;4.32;;;24.40;79.70;;;;;;5021361;28;20243;-90
2022/05/02 07:37:07;;;;;;;4.90;3.42;;;24.70;77.60;;;;;;5021482;28;20761;-91
2022/05/02 07:39:40;;;;;;;4.45;2.88;;;24.70;76.30;;;;;;5020353;28;20254;-90
2022/05/02 07:42:08;;;;;;;5.40;3.38;;;25.00;72.80;;;;;;5020607;28;20204;-89
2022/05/02 07:44:37;;;;;;;7.25;4.07;;;25.00;73.40;;;;;;5024823;28;20207;-88
2022/05/02 07:47:05;;;;;;;4.30;2.97;;;25.30;72.20;;;;;;5023638;28;20200;-87
2022/05/02 07:49:34;;;;;;;6.13;3.47;;;25.60;70.30;;;;;;5023583;28;20228;-89
2022/05/02 07:52:02;;;;;;;3.30;2.90;;;25.90;68.60;;;;;;5023771;28;20209;-89
2022/05/02 07:54:36;;;;;;;4.40;3.70;;;26.10;67.90;;;;;;5023507;28;20211;-89
2022/05/02 07:57:05;;;;;;;5.50;3.58;;;26.70;65.00;;;;;;5022743;28;20228;-88
2022/05/02 07:59:39;;;;;;;4.47;3.35;;;27.40;62.80;;;;;;5022266;28;20229;-89
2022/05/02 08:02:07;;;;;;;6.90;4.25;;;27.80;60.50;;;;;;5022917;28;20193;-89
2022/05/02 08:04:36;;;;;;;4.30;3.22;;;27.50;59.90;;;;;;5025463;28;20193;-89
2022/05/02 08:07:11;;;;;;;7.07;3.90;;;27.20;59.90;;;;;;5027486;28;20239;-89
2022/05/02 08:10:02;;;;;;;3.78;3.47;;;27.10;58.80;;;;;;5024114;28;20230;-88
2022/05/02 08:12:36;;;;;;;3.72;3.13;;;25.40;60.20;;;;;;5025838;28;20208;-90
2022/05/02 08:15:08;;;;;;;3.47;3.17;;;23.60;64.90;;;;;;5025266;28;20185;-88
2022/05/02 08:17:55;;;;;;;4.50;2.88;;;22.20;68.60;;;;;;5020948;28;20299;-88
2022/05/02 08:20:30;;;;;;;3.20;2.80;;;21.10;70.90;;;;;;5021408;28;20220;-87
2022/05/02 08:28:59;;;;;;;3.50;2.70;;;18.70;80.00;;;;;;5020939;28;20437;-89
2022/05/02 08:31:39;;;;;;;6.60;3.57;;;18.30;83.00;;;;;;5020711;28;20446;-89
2022/05/02 08:34:16;;;;;;;3.20;2.37;;;18.30;85.30;;;;;;5016468;28;20451;-76
2022/05/02 08:36:52;;;;;;;4.40;3.60;;;18.90;82.90;;;;;;5015630;28;20423;-79
2022/05/02 08:39:29;;;;;;;4.37;2.47;;;19.20;81.90;;;;;;5016113;28;20485;-82
2022/05/02 08:42:39;;;;;;;5.13;2.90;;;19.20;81.60;;;;;;5019618;28;20450;-92
2022/05/02 08:45:29;;;;;;;4.43;2.20;;;19.80;80.90;;;;;;5002029;28;20513;-85
2022/05/02 08:48:48;;;;;;;3.60;1.83;;;20.40;80.00;;;;;;5019660;28;20431;-86
2022/05/02 08:51:52;;;;;;;3.50;2.17;;;21.00;76.00;;;;;;5020194;28;20458;-96
2022/05/02 08:54:55;;;;;;;2.73;1.47;;;21.20;70.40;;;;;;5021042;28;20891;-86
2022/05/02 08:57:51;;;;;;;2.87;2.13;;;21.20;70.10;;;;;;5018585;28;20471;-85
2022/05/02 09:00:33;;;;;;;1.63;1.33;;;21.30;70.30;;;;;;5018380;28;20463;-88
2022/05/02 09:03:35;;;;;;;2.57;1.87;;;21.10;69.80;;;;;;5020706;28;20412;-88
2022/05/02 09:06:35;;;;;;;2.33;2.13;;;20.70;73.80;;;;;;4987980;28;20434;-86
2022/05/02 09:09:25;;;;;;;3.17;2.20;;;20.80;70.50;;;;;;5018034;28;20989;-86
2022/05/02 09:12:41;;;;;;;5.17;2.07;;;20.90;70.00;;;;;;5017578;28;20447;-86
2022/05/02 09:15:13;;;;;;;5.10;2.00;;;20.70;69.00;;;;;;5018262;28;20462;-88
2022/05/02 09:18:03;;;;;;;2.90;2.20;;;20.70;71.80;;;;;;5016833;28;20513;-87
2022/05/02 09:20:55;;;;;;;1.53;1.13;;;20.70;71.10;;;;;;5024276;28;20501;-90
2022/05/02 09:24:10;;;;;;;2.07;1.87;;;20.40;70.30;;;;;;5023427;28;20411;-89
2022/05/02 09:27:24;;;;;;;2.80;1.97;;;20.30;72.80;;;;;;4982118;28;20464;-89
2022/05/02 09:30:39;;;;;;;4.10;2.13;;;20.30;71.60;;;;;;4999991;28;20482;-91
2022/05/02 09:33:32;;;;;;;3.00;2.63;;;20.00;72.10;;;;;;5026046;28;20454;-95
2022/05/02 09:36:05;;;;;;;4.83;1.90;;;19.80;72.50;;;;;;5022366;28;20439;-92
2022/05/02 09:38:48;;;;;;;1.93;1.73;;;19.50;72.10;;;;;;5021842;28;20490;-94
2022/05/02 09:41:30;;;;;;;1.73;1.63;;;19.00;72.70;;;;;;5023126;28;20444;-95
2022/05/02 09:50:12;;;;;;;1.43;1.20;;;18.00;72.80;;;;;;5019968;28;20502;-89
2022/05/02 09:52:52;;;;;;;6.50;1.97;;;18.10;72.20;;;;;;5021705;28;20843;-83
2022/05/02 09:58:32;;;;;;;2.57;1.40;;;17.80;75.90;;;;;;5021510;28;20461;-88
2022/05/02 10:01:08;;;;;;;1.40;1.30;;;17.60;74.70;;;;;;5020091;28;20934;-88
2022/05/02 10:03:38;;;;;;;4.57;1.07;;;17.60;76.90;;;;;;5018006;28;20454;-88
2022/05/02 10:06:10;;;;;;;2.53;0.70;;;17.60;73.90;;;;;;5021369;28;20412;-88
2022/05/02 10:08:53;;;;;;;4.37;1.13;;;17.60;73.80;;;;;;5020625;28;20494;-85
2022/05/02 10:11:53;;;;;;;1.20;0.80;;;17.60;73.40;;;;;;5021399;28;20820;-90
2022/05/02 10:14:43;;;;;;;0.80;0.60;;;17.60;73.00;;;;;;5019809;28;20416;-89
2022/05/02 10:17:12;;;;;;;1.40;0.97;;;17.80;74.40;;;;;;5018763;28;20412;-87
2022/05/02 10:20:09;;;;;;;0.70;0.70;;;18.50;70.20;;;;;;5018257;28;20486;-91
2022/05/02 10:22:47;;;;;;;1.03;0.93;;;18.90;70.30;;;;;;5019308;28;20803;-89
2022/05/02 10:25:21;;;;;;;1.83;1.00;;;19.40;70.80;;;;;;5018765;28;20532;-86
2022/05/02 10:28:09;;;;;;;2.37;1.13;;;20.00;70.00;;;;;;5016665;28;20440;-81
2022/05/02 10:30:54;;;;;;;1.20;1.10;;;20.50;68.40;;;;;;5019971;28;20436;-88
2022/05/02 10:33:26;;;;;;;3.63;1.67;;;20.60;66.60;;;;;;5016979;28;20446;-91
2022/05/02 10:35:53;;;;;;;1.23;0.80;;;20.40;66.90;;;;;;5018164;28;20462;-88
2022/05/02 10:38:29;;;;;;;3.27;1.77;;;20.70;70.20;;;;;;5017624;28;20479;-92
2022/05/02 10:41:07;;;;;;;3.13;2.07;;;21.00;68.30;;;;;;5021047;28;20533;-88
2022/05/02 10:43:37;;;;;;;1.30;0.73;;;21.00;67.50;;;;;;5018314;28;20415;-87
2022/05/02 10:46:04;;;;;;;1.93;1.37;;;21.00;65.10;;;;;;5017810;28;20445;-88
2022/05/02 10:48:43;;;;;;;3.50;1.87;;;20.70;64.10;;;;;;5018926;28;20456;-88
2022/05/02 10:51:17;;;;;;;2.00;1.33;;;20.40;67.70;;;;;;5017957;28;20419;-91
2022/05/02 10:54:08;;;;;;;1.47;1.37;;;20.50;67.90;;;;;;5022574;28;20446;-90
2022/05/02 10:56:39;;;;;;;1.53;1.00;;;20.90;68.50;;;;;;5018943;28;20517;-89
2022/05/02 10:59:08;;;;;;;3.50;1.40;;;21.40;67.60;;;;;;5021510;28;20510;-90
2022/05/02 11:02:38;;;;;;;4.53;1.83;;;21.20;66.60;;;;;;5021156;28;20451;-89
2022/05/02 11:05:08;;;;;;;2.57;2.30;;;20.80;67.50;;;;;;5019383;28;20447;-87
2022/05/02 11:07:54;;;;;;;2.13;1.93;;;21.00;67.50;;;;;;5016966;28;20439;-89
2022/05/02 11:10:26;;;;;;;2.30;1.70;;;21.20;66.40;;;;;;5017702;28;20580;-88
2022/05/02 11:13:02;;;;;;;1.40;1.30;;;20.80;66.40;;;;;;5019360;28;20435;-89
2022/05/02 11:15:39;;;;;;;5.40;2.10;;;20.40;67.20;;;;;;5018151;28;20427;-87
2022/05/02 11:20:41;;;;;;;2.90;1.73;;;20.10;69.20;;;;;;5016145;28;20953;-87
2022/05/02 11:21:11;;;;;;;1.87;1.57;;;20.00;67.80;;;;;;5016104;28;20546;-87
2022/05/02 11:23:59;;;;;;;2.40;1.13;;;19.60;68.00;;;;;;4998488;28;20482;-87
2022/05/02 11:26:43;;;;;;;2.30;2.10;;;19.30;68.70;;;;;;5017608;28;20443;-94
2022/05/02 11:29:20;;;;;;;1.23;0.90;;;18.90;69.80;;;;;;5015933;28;20562;-91
2022/05/02 11:31:53;;;;;;;2.50;1.20;;;18.80;71.70;;;;;;5017671;28;20416;-89
2022/05/02 11:34:35;;;;;;;1.93;1.73;;;18.80;71.40;;;;;;5017914;28;20970;-90
2022/05/02 11:37:05;;;;;;;2.93;1.10;;;18.60;71.20;;;;;;5017312;28;20530;-89
2022/05/02 11:39:37;;;;;;;2.70;1.20;;;18.60;70.00;;;;;;5016780;28;20530;-89
2022/05/02 11:42:14;;;;;;;1.20;1.10;;;18.50;69.90;;;;;;5016950;28;20432;-89
2022/05/02 11:44:49;;;;;;;3.97;1.10;;;18.40;71.20;;;;;;5017398;28;20937;-90
2022/05/02 11:47:20;;;;;;;2.77;1.60;;;18.30;69.40;;;;;;5017514;28;20454;-87
2022/05/02 11:49:54;;;;;;;1.13;0.80;;;18.40;70.10;;;;;;5017282;28;20467;-87
2022/05/02 11:52:31;;;;;;;1.03;1.00;;;18.70;69.50;;;;;;5018983;28;20930;-87
2022/05/02 11:54:59;;;;;;;1.87;1.10;;;18.90;67.80;;;;;;5020540;28;20482;-88
2022/05/02 11:57:35;;;;;;;2.50;1.97;;;18.80;68.70;;;;;;5018622;28;20435;-88
2022/05/02 12:00:06;;;;;;;1.63;0.90;;;18.80;68.10;;;;;;5018381;28;20447;-87
2022/05/02 12:02:51;;;;;;;1.17;0.90;;;18.70;69.30;;;;;;5018499;28;20435;-87
2022/05/02 12:05:28;;;;;;;1.47;1.10;;;18.80;68.50;;;;;;5019425;28;20460;-89
2022/05/02 12:07:56;;;;;;;1.70;0.87;;;19.00;68.90;;;;;;5019658;28;20439;-88
2022/05/02 12:10:33;;;;;;;1.00;0.90;;;18.80;68.10;;;;;;5018482;28;20471;-88
2022/05/02 12:13:01;;;;;;;1.83;0.80;;;18.60;67.90;;;;;;5019654;28;20863;-90
2022/05/02 12:15:29;;;;;;;1.37;0.80;;;18.30;66.70;;;;;;5018460;28;20474;-88
2022/05/02 12:17:59;;;;;;;2.13;1.30;;;18.30;68.10;;;;;;5018506;28;20483;-87
2022/05/02 12:20:29;;;;;;;1.20;1.10;;;18.50;68.90;;;;;;5017314;28;20479;-86
2022/05/02 12:23:01;;;;;;;2.63;1.00;;;18.70;68.10;;;;;;5018808;28;20794;-88
2022/05/02 12:25:29;;;;;;;1.93;0.83;;;18.70;68.60;;;;;;5018098;28;20979;-87
2022/05/02 12:27:57;;;;;;;1.57;1.40;;;18.60;69.20;;;;;;5018519;28;20444;-87
2022/05/02 12:30:28;;;;;;;1.10;1.00;;;18.60;69.00;;;;;;5018447;28;20483;-88
2022/05/02 12:33:00;;;;;;;1.40;1.00;;;18.60;70.80;;;;;;5018383;28;20880;-86
2022/05/02 12:35:35;;;;;;;1.40;1.30;;;18.50;68.00;;;;;;5018284;28;20432;-88
2022/05/02 12:38:11;;;;;;;1.17;0.90;;;18.30;68.80;;;;;;5017878;28;20518;-85
2022/05/02 12:40:40;;;;;;;1.60;1.50;;;18.20;69.90;;;;;;5018408;28;20813;-86
2022/05/02 12:43:10;;;;;;;0.90;0.90;;;18.20;70.20;;;;;;5020383;28;20443;-87
2022/05/02 12:45:45;;;;;;;1.37;1.10;;;18.30;67.80;;;;;;5018907;28;20444;-86
2022/05/02 12:48:23;;;;;;;2.30;1.20;;;18.40;66.10;;;;;;5025170;28;20518;-85
2022/05/02 12:50:51;;;;;;;1.37;1.13;;;18.30;66.50;;;;;;5019855;28;20467;-86
2022/05/02 12:54:09;;;;;;;0.93;0.90;;;18.30;68.20;;;;;;5019632;28;20460;-87
2022/05/02 12:56:09;;;;;;;1.57;1.47;;;18.40;68.70;;;;;;5020285;28;20468;-88
2022/05/02 13:01:24;;;;;;;2.40;0.93;;;18.40;69.80;;;;;;5019028;28;20411;-88
2022/05/02 13:03:56;;;;;;;0.90;0.90;;;18.30;69.50;;;;;;5018995;28;20420;-86
2022/05/02 13:06:23;;;;;;;0.50;0.50;;;18.30;66.90;;;;;;5018270;28;20471;-88
2022/05/02 13:08:51;;;;;;;1.40;1.00;;;18.30;68.10;;;;;;5017809;28;20985;-89
2022/05/02 13:11:21;;;;;;;2.03;0.90;;;18.30;67.30;;;;;;5016826;28;20447;-87
2022/05/02 13:13:52;;;;;;;1.43;0.90;;;18.40;68.10;;;;;;5017234;28;20486;-86
2022/05/02 13:16:26;;;;;;;0.93;0.80;;;18.50;68.00;;;;;;5017527;28;20444;-89
2022/05/02 13:18:53;;;;;;;1.20;1.13;;;18.60;70.10;;;;;;5016620;28;20511;-87
2022/05/02 13:21:21;;;;;;;1.33;1.10;;;18.60;69.20;;;;;;5016425;28;20777;-87
2022/05/02 13:23:50;;;;;;;2.93;1.10;;;18.60;69.90;;;;;;5016114;28;20451;-86
2022/05/02 13:26:50;;;;;;;0.90;0.87;;;18.70;69.00;;;;;;5016186;28;20458;-87
2022/05/02 13:29:35;;;;;;;1.60;1.20;;;18.70;70.40;;;;;;5016337;28;20499;-91
2022/05/02 13:32:05;;;;;;;1.30;1.00;;;18.70;70.20;;;;;;5016106;28;20454;-87
2022/05/02 13:34:55;;;;;;;1.13;0.70;;;18.80;67.30;;;;;;5016569;28;20447;-87
2022/05/02 13:37:32;;;;;;;3.10;1.00;;;18.80;67.90;;;;;;5015925;28;20447;-87
2022/05/02 13:40:07;;;;;;;1.00;0.90;;;18.80;67.60;;;;;;5015496;28;20529;-87
2022/05/02 13:42:50;;;;;;;1.10;1.00;;;18.70;66.90;;;;;;5020071;28;20485;-87
2022/05/02 13:45:35;;;;;;;4.30;0.97;;;18.50;68.40;;;;;;5015961;28;20463;-87
2022/05/02 13:48:15;;;;;;;1.30;0.77;;;18.50;69.40;;;;;;5015774;28;20432;-88
2022/05/02 13:50:52;;;;;;;1.87;0.80;;;18.50;67.90;;;;;;5015444;28;20769;-87